Latest Coastal Weather Observations for Maroochydore

IDQ60701

Issued at 1:34 am EST Friday 22 September 2017 (issued every 10 minutes, with the page automatically refreshed every 10 minutes)

About coastal observations | Map of coastal stations | Coastal observations for QLD | Marine services | Other Formats
Station Details ID: 040861 Name: SUNSHINE COAST AIRPORT Lat: -26.60 Lon: 153.09 Height: 3.3 m
Data from the previous 72 hours. | See also: Recent months at Maroochydore
Date/Time
EST
Temp
°C
Wind Pressure Rain since
9am
mm
Weather Cloud Vis
km
Sea
Height
m
Swell
Dir  Spd
kts
Gust
kts
hPa Trend Height
m
Period
s
Dir
21/08:30pm 21.7 N 13 18 1017.7 - 0.0 - Partly cloudy 10 - - - -
21/08:00pm 21.5 NNE 13 16 1017.5 - 0.0 - Partly cloudy 10 - - - -
21/07:30pm 21.6 NNE 13 17 1017.4 - 0.0 - Partly cloudy 10 - - - -
21/07:00pm 21.7 NNE 14 17 1017.2 - 0.0 - Cloudy 10 - - - -
21/06:30pm 21.5 NNE 14 17 1016.8 - 0.0 - Partly cloudy 10 - - - -
21/06:00pm 21.6 NNE 11 14 1016.9 - 0.0 - Cloudy 10 - - - -
21/05:30pm 21.7 NNE 12 15 1016.5 - 0.0 - Partly cloudy 10 - - - -
21/05:00pm 21.8 NE 12 15 1016.2 - 0.0 - Cloudy 10 - - - -
21/04:30pm 22.0 NNE 13 16 1016.0 - 0.0 - Partly cloudy 10 - - - -
21/04:00pm 22.6 NNE 13 16 1015.7 - 0.0 - Partly cloudy 10 - - - -
21/03:30pm 23.2 NE 14 18 1015.7 - 0.0 - Partly cloudy 10 - - - -
21/03:00pm 24.3 NE 13 17 1015.7 - 0.0 - - 10 - - - -
21/02:30pm 24.3 NNE 14 19 1015.7 - 0.0 - - 10 - - - -
21/02:00pm 24.5 NE 14 20 1015.9 - 0.0 - - 10 - - - -
21/01:30pm 24.7 NE 14 17 1016.2 - 0.0 - - 10 - - - -
21/01:00pm 25.2 NE 13 16 1016.6 - 0.0 - - 10 - - - -
21/12:30pm 25.1 NE 14 17 1017.1 - 0.0 - - 10 - - - -
21/12:00pm 25.1 NE 13 16 1017.5 - 0.0 - - 10 - - - -
21/11:30am 25.3 NE 12 15 1018.1 - 0.0 - - 10 - - - -
21/11:00am 25.2 NE 10 13 1018.6 - 0.0 - Partly cloudy 10 - - - -
21/10:30am 24.6 NE 11 15 1019.0 - 0.0 - Partly cloudy 10 - - - -
21/10:00am 24.1 NNE 10 13 1019.2 - 0.0 - Partly cloudy 10 - - - -
21/09:30am 24.1 NNE 10 12 1019.4 - 0.0 - Partly cloudy 10 - - - -
21/09:00am 22.6 NE 6 8 1019.5 - 0.0 - Partly cloudy 10 - - - -
21/08:30am 21.9 SSE 3 5 1019.6 - 0.0 - Partly cloudy 10 - - - -
21/08:00am 20.4 CALM 0 0 1019.7 - 0.0 - Partly cloudy 10 - - - -
21/07:30am 19.3 W 5 7 1019.5 - 0.0 - Partly cloudy 10 - - - -
21/07:00am 19.6 SW 3 5 1019.1 - 0.0 - Cloudy 10 - - - -
21/06:30am 18.7 W 5 7 1018.9 - 0.0 - Cloudy 10 - - - -
21/06:00am 20.4 ENE 6 8 1018.5 - 0.0 - Cloudy 10 - - - -
21/05:30am 20.5 E 7 11 1018.0 - 0.0 - Partly cloudy 10 - - - -
21/05:00am 20.3 E 7 10 1017.8 - 0.0 - Partly cloudy 10 - - - -
21/04:30am 20.0 ESE 7 10 1017.6 - 0.0 - Partly cloudy 10 - - - -
21/04:00am 20.1 E 7 10 1017.4 - 0.0 - Partly cloudy 10 - - - -
21/03:30am 20.1 E 7 9 1017.2 - 0.0 - Partly cloudy 10 - - - -
21/03:00am 20.2 E 6 8 1017.2 - 0.0 - Cloudy 10 - - - -
21/02:30am 20.2 E 7 11 1017.3 - 0.0 - Partly cloudy 10 - - - -
21/02:00am 20.2 E 8 11 1017.2 - 0.0 - Cloudy 10 - - - -
21/01:30am 20.1 E 8 12 1017.3 - 0.0 - Partly cloudy 10 - - - -
21/01:00am 20.2 ESE 8 11 1017.8 - 0.0 - Partly cloudy 10 - - - -
21/12:30am 20.4 ESE 8 12 1018.1 - 0.0 - Cloudy 10 - - - -
21/12:00am 20.4 ESE 8 11 1018.4 - 0.0 - Cloudy 10 - - - -
 
Date/Time
EST
Temp
°C
Wind Pressure Rain since
9am
mm
Weather Cloud Vis
km
Sea
Height
m
Swell
Dir  Spd
kts
Gust
kts
hPa Trend Height
m
Period
s
Dir
20/11:30pm 20.5 ESE 8 11 1018.4 - 0.0 - Partly cloudy 10 - - - -
20/11:00pm 20.0 SE 8 10 1018.6 - 0.0 - Partly cloudy 10 - - - -
20/10:30pm 20.2 ESE 7 9 1018.7 - 0.0 - Partly cloudy 10 - - - -
20/10:00pm 20.5 E 7 9 1018.6 - 0.0 - Partly cloudy 10 - - - -
20/09:30pm 20.3 ESE 7 8 1018.8 - 0.0 - Partly cloudy 10 - - - -
20/09:00pm 20.4 ESE 8 10 1018.4 - 0.0 - Partly cloudy 10 - - - -
20/08:30pm 20.6 ESE 8 11 1018.0 - 0.0 - Partly cloudy 10 - - - -
20/08:00pm 20.7 ESE 7 9 1018.1 - 0.0 - Partly cloudy 10 - - - -
20/07:30pm 20.3 ESE 8 9 1017.8 - 0.0 - Partly cloudy 10 - - - -
20/07:00pm 20.1 ESE 7 11 1017.5 - 0.0 - - 10 - - - -
20/06:30pm 20.4 ESE 9 13 1017.2 - 0.0 - Partly cloudy 10 - - - -
20/06:00pm 20.5 ESE 10 13 1016.6 - 0.0 - Cloudy 10 - - - -
20/05:30pm 20.5 ESE 10 13 1016.0 - 0.0 - Partly cloudy 10 - - - -
20/05:00pm 21.0 ESE 9 13 1015.7 - 0.0 - Partly cloudy 10 - - - -
20/04:30pm 21.4 ESE 9 14 1015.6 - 0.0 - Partly cloudy 10 - - - -
20/04:00pm 22.1 ESE 11 15 1015.5 - 0.0 - Partly cloudy 10 - - - -
20/03:30pm 22.5 ESE 12 17 1015.4 - 0.0 - - 10 - - - -
20/03:00pm 23.0 ESE 11 15 1015.5 - 0.0 - - 10 - - - -
20/02:30pm 22.9 ESE 13 17 1015.6 - 0.0 - - 10 - - - -
20/02:00pm 22.9 ESE 13 17 1015.8 - 0.0 - - 10 - - - -
20/01:30pm 23.2 ESE 13 18 1016.1 - 0.0 - - 10 - - - -
20/01:00pm 23.8 ESE 13 17 1016.7 - 0.0 - - 10 - - - -
20/12:30pm 23.1 SE 13 17 1017.1 - 0.0 - - 10 - - - -
20/12:00pm 23.3 SE 12 15 1017.6 - 0.0 - - 10 - - - -
20/11:30am 24.0 SSE 12 16 1018.1 - 0.0 - - 10 - - - -
20/11:00am 23.5 SSE 11 16 1018.7 - 0.0 - - 10 - - - -
20/10:30am 23.4 SSE 13 16 1019.1 - 0.0 - - 10 - - - -
20/10:00am 23.5 SSE 12 17 1019.3 - 0.0 - - 10 - - - -
20/09:30am 23.5 SSE 12 17 1019.3 - 0.0 - - 10 - - - -
20/09:00am 22.9 SSE 12 16 1019.3 - 0.0 - Mostly clear 10 - - - -
20/08:30am 22.6 SSE 12 16 1019.4 - 0.0 - Partly cloudy 10 - - - -
20/08:21am 22.1 SSE 13 17 1019.3 - 0.0 - Partly cloudy 10 - - - -
20/08:00am 21.2 SSE 12 15 1019.2 - 0.0 - Partly cloudy 10 - - - -
20/07:30am 20.5 S 9 13 1018.7 - 0.0 - Cloudy 10 - - - -
20/07:00am 19.2 S 10 13 1018.2 - 0.0 - Partly cloudy 10 - - - -
20/06:52am 19.1 S 10 13 1018.2 - 0.0 - Partly cloudy 10 - - - -
20/06:30am 18.5 S 11 15 1017.8 - 0.0 - - 10 - - - -
20/06:00am 18.1 S 11 15 1017.4 - 0.0 - - 10 - - - -
20/05:30am 15.3 S 4 6 1016.9 - 0.0 - - 10 - - - -
20/05:00am 15.2 CALM 0 0 1015.9 - 0.0 - - 10 - - - -
20/04:30am 15.8 WNW 3 5 1015.5 - 0.0 - - 10 - - - -
20/04:00am 16.2 NNW 6 7 1015.1 - 0.0 - - 10 - - - -
20/03:30am 16.3 NNW 5 6 1015.3 - 0.0 - - 10 - - - -
20/03:00am 16.9 NNE 5 6 1015.5 - 0.0 - - 10 - - - -
20/02:30am 17.5 N 6 8 1015.5 - 0.0 - - 10 - - - -
20/02:00am 18.8 NNW 6 9 1016.1 - 0.0 - - 10 - - - -
20/01:30am 18.8 NNW 8 11 1016.2 - 0.0 - Partly cloudy 10 - - - -
20/01:00am 18.5 NNW 2 5 1016.7 - 0.0 - Partly cloudy 10 - - - -
20/12:30am 19.0 NW 7 10 1016.1 - 0.0 - - 10 - - - -
20/12:00am 17.8 N 6 8 1016.1 - 0.0 - - 10 - - - -
 
Date/Time
EST
Temp
°C
Wind Pressure Rain since
9am
mm
Weather Cloud Vis
km
Sea
Height
m
Swell
Dir  Spd
kts
Gust
kts
hPa Trend Height
m
Period
s
Dir
19/11:30pm 18.6 NNW 6 8 1016.4 - 0.0 - - 10 - - - -
19/11:00pm 17.7 N 6 7 1016.7 - 0.0 - - 10 - - - -
19/10:30pm 19.0 NNW 6 7 1017.2 - 0.0 - - 10 - - - -
19/10:00pm 19.6 NNW 8 11 1017.6 - 0.0 - - 10 - - - -
19/09:30pm 19.4 N 6 8 1017.7 - 0.0 - - 10 - - - -
19/09:00pm 19.8 N 9 13 1018.0 - 0.0 - - 10 - - - -
19/08:30pm 20.2 N 9 13 1017.4 - 0.0 - - 10 - - - -
19/08:00pm 20.4 N 8 11 1017.5 - 0.0 - - 10 - - - -
19/07:30pm 20.8 NNW 10 14 1017.6 - 0.0 - - 10 - - - -
19/07:00pm 20.7 N 8 12 1017.5 - 0.0 - - 10 - - - -
19/06:30pm 21.1 N 11 14 1016.9 - 0.0 - - 10 - - - -
19/06:00pm 21.3 N 13 18 1016.7 - 0.0 - - 10 - - - -
19/05:30pm 21.4 N 15 22 1017.1 - 0.0 - - 10 - - - -
19/05:00pm 21.9 N 15 22 1016.9 - 0.0 - - 10 - - - -
19/04:30pm 22.1 N 18 25 1016.5 - 0.0 - - 10 - - - -
19/04:00pm 22.4 N 18 24 1016.5 - 0.0 - - 10 - - - -
19/03:30pm 23.3 NNE 17 23 1015.6 - 0.0 - - 10 - - - -
19/03:00pm 24.0 NNE 16 22 1016.4 - 0.0 - - 10 - - - -
19/02:30pm 24.3 NNE 16 22 1016.7 - 0.0 - - 10 - - - -
19/02:00pm 24.1 NNE 18 23 1017.1 - 0.0 - - 10 - - - -
19/01:30pm 25.0 NNE 17 21 1017.7 - 0.0 - - 10 - - - -
19/01:00pm 25.1 NNE 16 20 1018.3 - 0.0 - - 10 - - - -
19/12:30pm 24.5 NNE 16 21 1018.8 - 0.0 - - 10 - - - -
19/12:00pm 24.6 NNE 15 19 1019.4 - 0.0 - - 10 - - - -
19/11:30am 25.0 NNE 15 19 1020.1 - 0.0 - - 10 - - - -
19/11:00am 26.2 N 10 11 1020.7 - 0.0 - - 10 - - - -
19/10:30am 25.2 NNW 9 13 1021.2 - 0.0 - - 10 - - - -
19/10:00am 23.9 WNW 8 10 1021.6 - 0.0 - - 10 - - - -
19/09:30am 23.3 NW 11 15 1022.0 - 0.0 - - 10 - - - -
19/09:00am 22.2 NNW 9 12 1022.2 - 0.0 - - 10 - - - -
19/08:30am 20.7 NNW 10 13 1022.5 - 0.0 - - 10 - - - -
19/08:00am 18.5 WNW 5 8 1022.6 - 0.0 - - 10 - - - -
19/07:30am 15.9 WNW 5 7 1022.5 - 0.0 - - 10 - - - -
19/07:00am 13.4 WNW 6 8 1022.2 - 0.0 - - 10 - - - -
19/06:30am 11.9 W 6 7 1022.0 - 0.0 - - 10 - - - -
19/06:00am 10.9 NW 6 7 1021.8 - 0.0 - - 10 - - - -
19/05:30am 11.1 WNW 7 8 1021.7 - 0.0 - - 10 - - - -
19/05:00am 11.0 WNW 5 7 1021.6 - 0.0 - - 10 - - - -
19/04:30am 11.0 W 5 6 1021.5 - 0.0 - - 10 - - - -
19/04:00am 11.2 WNW 6 7 1021.4 - 0.0 - - 10 - - - -
19/03:30am 11.3 WNW 6 7 1021.5 - 0.0 - - 10 - - - -
19/03:00am 11.3 WNW 7 8 1021.8 - 0.0 - - 10 - - - -
19/02:30am 11.0 WNW 6 7 1022.1 - 0.0 - - 10 - - - -
19/02:00am 11.4 WNW 7 7 1022.5 - 0.0 - - 10 - - - -

Other Formats:

Comma delimited format used in spreadsheet applications
http://www.bom.gov.au/fwo/IDQ60701/IDQ60701.94569.axf

JavaScript Object Notation format (JSON) in row-major order
http://www.bom.gov.au/fwo/IDQ60701/IDQ60701.94569.json